Pagrindinis puslapis
METAR-TAF:

METAR-TAF

Oro uostai :

Doylestown Airport

Doylestown, Pensilvanija, Jungtinės Amerikos Valstijos

platuma: 40-19-48N, ilguma: 075-07-21W, Aukštis: 120 m

Dabartinis oras

Ataskaita buvo paskelbta 14 minutes, ne 05:54 UTC
Vėjas 7 kt iš Pietvakarių
Temperatūra -2°C
Drėgmė 46%
Slėgis 1011 hPa
Matomumas: 16.1 km
Mažai debesys ne aukštis 6000 ft

METAR: KDYL 280554Z AUTO 23007KT 10SM FEW060 M02/M12 A2985 RMK AO2 SLP114 T10171117 10000 21017 56001

Laikas: 01:08 (06:08 UTC)


TAF: trūkstamas

Orai ataskaitas ir orų prognozės (METAR, TAF).

turimą stotys yra geltonos ir raudonos taškus žemėlapyje.

Perkelti pele per norėdami pamatyti stoties vardą.

Tada spustelėkite, norėdami matyti oro stebėjimo ir prognozės.

Norėdami pakeisti žemėlapį: spustelėkite ant žalios mygtukų su juodo kryžiaus žemyn,; žalią mygtuką su brūkšneliu, jei norite nutolinti; arba žalių rodyklių gretimoms žemėlapius.


METAR-TAF: